Time;durP1;ratioP1;P1;durP2;ratioP2;P2;SDS_P1;SDS_P2;PMS_P1;PMS_P2;Temp;Humidity;BMP_temperature;BMP_pressure;BME280_temperature;BME280_humidity;BME280_pressure;Samples;Min_cycle;Max_cycle;Signal;HPM_P1;HPM_P2
2021/06/25 00:01:09;;;;;;;23.30;19.53;;;15.80;99.90;;;;;;4991064;28;20462;-83
2021/06/25 00:03:36;;;;;;;21.60;19.30;;;15.80;99.90;;;;;;5003911;28;20458;-83
2021/06/25 00:06:03;;;;;;;25.17;20.50;;;15.80;99.90;;;;;;5019935;28;20457;-82
2021/06/25 00:08:30;;;;;;;23.27;19.93;;;15.70;99.90;;;;;;5009674;28;20453;-83
2021/06/25 00:10:56;;;;;;;28.70;20.23;;;15.70;99.90;;;;;;4987534;28;20472;-82
2021/06/25 00:13:23;;;;;;;23.37;21.00;;;15.70;99.90;;;;;;5002895;28;20444;-82
2021/06/25 00:15:50;;;;;;;21.43;17.90;;;15.60;99.90;;;;;;5022190;28;20482;-83
2021/06/25 00:18:17;;;;;;;22.23;19.83;;;15.60;99.90;;;;;;5023819;28;20471;-83
2021/06/25 00:20:44;;;;;;;22.87;18.63;;;15.60;99.90;;;;;;5026223;28;20520;-82
2021/06/25 00:23:11;;;;;;;24.63;20.70;;;15.60;99.90;;;;;;5014836;28;20445;-81
2021/06/25 00:25:38;;;;;;;23.20;20.77;;;15.50;99.90;;;;;;5007633;28;20464;-83
2021/06/25 00:28:05;;;;;;;24.20;19.00;;;15.50;99.90;;;;;;5007855;28;20460;-84
2021/06/25 00:30:32;;;;;;;22.80;19.77;;;15.50;99.90;;;;;;5025295;28;20512;-83
2021/06/25 00:33:00;;;;;;;25.57;19.77;;;15.60;99.90;;;;;;5007213;28;20444;-82
2021/06/25 00:35:27;;;;;;;27.87;21.47;;;15.60;99.90;;;;;;5007141;28;20437;-83
2021/06/25 00:37:57;;;;;;;29.60;21.17;;;15.50;99.90;;;;;;5007541;28;20472;-84
2021/06/25 00:40:24;;;;;;;28.83;21.10;;;15.50;99.90;;;;;;5024486;28;20857;-83
2021/06/25 00:42:51;;;;;;;25.10;21.10;;;15.50;99.90;;;;;;4990982;28;20449;-82
2021/06/25 00:45:19;;;;;;;32.10;20.90;;;15.50;99.90;;;;;;5007850;28;20440;-82
2021/06/25 00:47:49;;;;;;;28.43;20.80;;;15.40;99.90;;;;;;4957548;28;20485;-84
2021/06/25 00:50:20;;;;;;;23.70;21.20;;;15.40;99.90;;;;;;5008936;28;20456;-84
2021/06/25 00:52:51;;;;;;;25.53;20.17;;;15.40;99.90;;;;;;4980832;28;20765;-82
2021/06/25 00:55:18;;;;;;;22.87;19.60;;;15.40;99.90;;;;;;4987724;28;20826;-84
2021/06/25 00:57:45;;;;;;;27.10;22.10;;;15.30;99.90;;;;;;4987356;28;20561;-83
2021/06/25 01:00:13;;;;;;;28.03;22.17;;;15.30;99.90;;;;;;4971102;28;20529;-81
2021/06/25 01:02:40;;;;;;;27.40;20.53;;;15.20;99.90;;;;;;4985892;28;20476;-80
2021/06/25 01:05:08;;;;;;;25.67;21.17;;;15.20;99.90;;;;;;4986903;28;20446;-82
2021/06/25 01:07:35;;;;;;;27.63;21.23;;;15.20;99.90;;;;;;4985935;28;20502;-84
2021/06/25 01:10:05;;;;;;;24.23;20.27;;;15.10;99.90;;;;;;4987440;28;20444;-84
2021/06/25 01:12:32;;;;;;;28.30;22.57;;;15.10;99.90;;;;;;4985857;28;20493;-82
2021/06/25 01:14:59;;;;;;;32.83;22.53;;;15.10;99.90;;;;;;4987377;28;20546;-83
2021/06/25 01:17:33;;;;;;;25.63;21.17;;;15.10;99.90;;;;;;4985608;28;20478;-82
2021/06/25 01:20:04;;;;;;;25.70;20.60;;;15.10;99.90;;;;;;4970965;28;20434;-81
2021/06/25 01:22:35;;;;;;;24.90;20.03;;;15.10;99.90;;;;;;5001530;28;20497;-82
2021/06/25 01:25:06;;;;;;;31.00;21.63;;;15.10;99.90;;;;;;4987232;28;20430;-83
2021/06/25 01:27:34;;;;;;;35.20;22.30;;;15.00;99.90;;;;;;5007667;28;20489;-83
2021/06/25 01:30:02;;;;;;;33.30;20.83;;;15.10;99.90;;;;;;4977993;28;20441;-81
2021/06/25 01:32:30;;;;;;;26.27;20.50;;;15.10;99.90;;;;;;4970306;28;20513;-84
2021/06/25 01:35:00;;;;;;;27.00;21.37;;;15.10;99.90;;;;;;4970197;28;20477;-82
2021/06/25 01:37:28;;;;;;;25.47;20.80;;;15.10;99.90;;;;;;4984853;28;20546;-84
2021/06/25 01:39:54;;;;;;;26.63;21.67;;;15.10;99.90;;;;;;4971458;28;20430;-83
2021/06/25 01:42:21;;;;;;;28.70;21.47;;;15.10;99.90;;;;;;4971218;28;20496;-82
2021/06/25 01:44:51;;;;;;;28.57;21.03;;;15.10;99.90;;;;;;4987860;28;20705;-83
2021/06/25 01:47:18;;;;;;;29.20;23.03;;;15.20;99.90;;;;;;4986205;28;21060;-84
2021/06/25 01:49:45;;;;;;;28.93;23.20;;;15.20;99.90;;;;;;4993253;28;20429;-84
2021/06/25 01:52:17;;;;;;;36.33;22.70;;;15.20;99.90;;;;;;5020597;28;20505;-82
2021/06/25 01:54:45;;;;;;;29.60;22.27;;;15.20;99.90;;;;;;5004062;28;20942;-82
2021/06/25 01:57:13;;;;;;;24.60;21.40;;;15.20;99.90;;;;;;4986169;28;21061;-83
2021/06/25 01:59:41;;;;;;;30.63;22.37;;;15.30;99.90;;;;;;4987463;28;20532;-82
2021/06/25 02:02:08;;;;;;;25.50;21.50;;;15.30;99.90;;;;;;4969858;28;20512;-83
2021/06/25 02:04:36;;;;;;;30.63;23.37;;;15.30;99.90;;;;;;4987252;28;20954;-83
2021/06/25 02:07:03;;;;;;;28.83;21.97;;;15.30;99.90;;;;;;4985339;28;20558;-83
2021/06/25 02:09:30;;;;;;;27.67;23.30;;;15.30;99.90;;;;;;4987238;28;20433;-82
2021/06/25 02:11:57;;;;;;;27.30;21.33;;;15.30;99.90;;;;;;4987507;28;20482;-83
2021/06/25 02:14:24;;;;;;;34.57;22.20;;;15.30;99.90;;;;;;4972151;28;20457;-83
2021/06/25 02:16:51;;;;;;;23.20;20.63;;;15.30;99.90;;;;;;4984206;28;20482;-82
2021/06/25 02:19:18;;;;;;;26.00;22.40;;;15.20;99.90;;;;;;4968625;28;20466;-82
2021/06/25 02:21:45;;;;;;;25.77;20.87;;;15.20;99.90;;;;;;4952014;28;20513;-82
2021/06/25 02:24:12;;;;;;;38.87;23.03;;;15.20;99.90;;;;;;4952012;28;20427;-84
2021/06/25 02:26:39;;;;;;;27.60;21.80;;;15.10;99.90;;;;;;4967561;28;20459;-82
2021/06/25 02:29:05;;;;;;;28.73;22.53;;;15.00;99.90;;;;;;4952287;28;20474;-83
2021/06/25 02:31:32;;;;;;;24.23;21.40;;;15.00;99.90;;;;;;4962569;28;20480;-82
2021/06/25 02:34:00;;;;;;;29.27;22.83;;;15.00;99.90;;;;;;4991004;28;20461;-82
2021/06/25 02:36:26;;;;;;;29.97;23.20;;;14.90;99.90;;;;;;4993132;28;21033;-81
2021/06/25 02:38:53;;;;;;;28.00;23.60;;;14.90;99.90;;;;;;4955223;28;20485;-83
2021/06/25 02:41:20;;;;;;;27.93;21.57;;;14.90;99.90;;;;;;4986371;28;20463;-82
2021/06/25 02:43:48;;;;;;;24.87;22.10;;;14.90;99.90;;;;;;4987886;28;20517;-83
2021/06/25 02:46:17;;;;;;;30.10;24.10;;;14.90;99.90;;;;;;4957267;28;20466;-82
2021/06/25 02:48:43;;;;;;;29.10;23.37;;;15.00;99.90;;;;;;4967300;28;20497;-84
2021/06/25 02:51:10;;;;;;;28.17;22.67;;;14.90;99.90;;;;;;5002821;28;20836;-83
2021/06/25 02:53:37;;;;;;;28.67;22.10;;;14.90;99.90;;;;;;5007657;28;20509;-83
2021/06/25 02:56:04;;;;;;;28.27;23.17;;;14.90;99.90;;;;;;5003392;28;20489;-82
2021/06/25 02:58:31;;;;;;;32.63;24.17;;;14.90;99.90;;;;;;5004060;28;20564;-83
2021/06/25 03:00:58;;;;;;;30.43;23.63;;;14.90;99.90;;;;;;5005995;28;20462;-82
2021/06/25 03:03:25;;;;;;;32.40;24.60;;;14.80;99.90;;;;;;4984121;28;20442;-83
2021/06/25 03:05:52;;;;;;;27.13;23.30;;;14.80;99.90;;;;;;4989876;28;20481;-82
2021/06/25 03:08:20;;;;;;;31.97;26.20;;;14.80;99.90;;;;;;4990218;28;20457;-82
2021/06/25 03:10:49;;;;;;;28.27;24.13;;;14.80;99.90;;;;;;4989985;28;20894;-85
2021/06/25 03:13:17;;;;;;;30.63;27.10;;;14.90;99.90;;;;;;5008076;28;20418;-82
2021/06/25 03:15:45;;;;;;;33.23;27.33;;;14.90;99.90;;;;;;4990917;28;20442;-83
2021/06/25 03:18:13;;;;;;;29.67;25.63;;;14.80;99.90;;;;;;4976997;28;20474;-82
2021/06/25 03:20:40;;;;;;;30.30;25.27;;;14.90;99.90;;;;;;4971665;28;20525;-84
2021/06/25 03:23:07;;;;;;;30.43;26.27;;;14.90;99.90;;;;;;4970867;28;20438;-83
2021/06/25 03:25:35;;;;;;;29.67;24.87;;;14.90;99.90;;;;;;4987970;28;20442;-82
2021/06/25 03:28:03;;;;;;;32.50;26.80;;;14.90;99.90;;;;;;4986409;28;20463;-82
2021/06/25 03:30:31;;;;;;;36.00;24.90;;;14.80;99.90;;;;;;4987651;28;20433;-82
2021/06/25 03:32:59;;;;;;;31.80;25.10;;;14.80;99.90;;;;;;4999630;28;20485;-83
2021/06/25 03:35:26;;;;;;;29.80;25.97;;;14.80;99.90;;;;;;4991171;28;20449;-83
2021/06/25 03:37:53;;;;;;;30.30;23.97;;;14.80;99.90;;;;;;5003588;28;20502;-83
2021/06/25 03:40:20;;;;;;;34.50;26.83;;;14.70;99.90;;;;;;4990696;28;20438;-83
2021/06/25 03:42:47;;;;;;;31.63;25.03;;;14.70;99.90;;;;;;5011360;28;20486;-83
2021/06/25 03:45:14;;;;;;;28.70;24.10;;;14.70;99.90;;;;;;5004102;28;20435;-80
2021/06/25 03:47:42;;;;;;;31.20;25.07;;;14.60;99.90;;;;;;4995575;28;20497;-82
2021/06/25 03:50:11;;;;;;;36.63;25.47;;;14.60;99.90;;;;;;4971510;28;20442;-83
2021/06/25 03:52:38;;;;;;;34.10;25.80;;;14.60;99.90;;;;;;4978420;28;20557;-84
2021/06/25 03:55:09;;;;;;;36.00;25.77;;;14.60;99.90;;;;;;4991781;28;20468;-81
2021/06/25 03:57:41;;;;;;;32.47;26.20;;;14.60;99.90;;;;;;4990972;28;20470;-81
2021/06/25 04:00:11;;;;;;;43.13;29.03;;;14.60;99.90;;;;;;4992119;28;20504;-83
2021/06/25 04:02:38;;;;;;;32.60;25.40;;;14.60;99.90;;;;;;5004262;28;20477;-82
2021/06/25 04:05:10;;;;;;;40.90;27.87;;;14.60;99.90;;;;;;4988306;28;20466;-82
2021/06/25 04:07:38;;;;;;;40.60;26.73;;;14.70;99.90;;;;;;5006304;28;20502;-82
2021/06/25 04:10:06;;;;;;;36.13;28.27;;;14.80;99.90;;;;;;5008471;28;20430;-83
2021/06/25 04:12:35;;;;;;;43.57;30.00;;;14.80;99.90;;;;;;5007922;28;20466;-84
2021/06/25 04:15:03;;;;;;;34.60;28.00;;;14.80;99.90;;;;;;5006871;28;20444;-82
2021/06/25 04:17:30;;;;;;;37.30;27.30;;;14.80;99.90;;;;;;4987159;28;20466;-82
2021/06/25 04:19:57;;;;;;;39.10;30.17;;;14.80;99.90;;;;;;4972181;28;20494;-83
2021/06/25 04:22:24;;;;;;;34.07;27.37;;;14.90;99.90;;;;;;4991128;28;20493;-83
2021/06/25 04:24:51;;;;;;;37.73;30.00;;;14.90;99.90;;;;;;5007480;28;20462;-82
2021/06/25 04:27:18;;;;;;;38.63;29.37;;;14.90;99.90;;;;;;4990598;28;20486;-81
2021/06/25 04:29:46;;;;;;;40.17;29.93;;;14.90;99.90;;;;;;4974275;28;20528;-82
2021/06/25 04:32:15;;;;;;;42.00;30.73;;;14.90;99.90;;;;;;5006463;28;20478;-82
2021/06/25 04:34:42;;;;;;;33.83;27.97;;;15.00;99.90;;;;;;5007935;28;20476;-84
2021/06/25 04:37:09;;;;;;;36.47;29.00;;;15.00;99.90;;;;;;4986186;28;20481;-83
2021/06/25 04:39:36;;;;;;;40.20;32.00;;;15.00;99.90;;;;;;5002221;28;20475;-84
2021/06/25 04:42:04;;;;;;;42.10;29.50;;;15.20;99.90;;;;;;4985508;28;20470;-82
2021/06/25 04:44:30;;;;;;;39.30;28.80;;;15.20;99.90;;;;;;5002355;28;20525;-82
2021/06/25 04:46:57;;;;;;;36.90;29.10;;;15.10;99.90;;;;;;5000710;28;20478;-84
2021/06/25 04:49:24;;;;;;;35.67;29.17;;;15.10;99.90;;;;;;5013193;28;20457;-83
2021/06/25 04:51:51;;;;;;;39.57;30.00;;;15.10;99.90;;;;;;5006053;28;20458;-82
2021/06/25 04:54:18;;;;;;;38.53;29.60;;;15.10;99.90;;;;;;4988618;28;20426;-82
2021/06/25 04:56:45;;;;;;;38.00;29.00;;;15.20;99.90;;;;;;5008969;28;21021;-82
2021/06/25 04:59:11;;;;;;;39.73;31.80;;;15.20;99.90;;;;;;4969391;28;20470;-83
2021/06/25 05:01:38;;;;;;;44.53;29.87;;;15.20;99.90;;;;;;5004412;28;20466;-84
2021/06/25 05:04:05;;;;;;;39.07;32.90;;;15.20;99.90;;;;;;5007360;28;20418;-84
2021/06/25 05:06:32;;;;;;;45.97;33.50;;;15.20;99.90;;;;;;4981409;28;20453;-82
2021/06/25 05:08:59;;;;;;;41.03;30.87;;;15.20;99.90;;;;;;4973643;28;20442;-83
2021/06/25 05:11:26;;;;;;;43.80;31.80;;;15.20;99.90;;;;;;4987863;28;21001;-82
2021/06/25 05:13:53;;;;;;;40.60;32.20;;;15.20;99.90;;;;;;5005825;28;20453;-82
2021/06/25 05:16:20;;;;;;;37.50;29.77;;;15.30;99.90;;;;;;5005882;28;20561;-83
2021/06/25 05:18:47;;;;;;;41.30;32.53;;;15.30;99.90;;;;;;5024629;28;20476;-84
2021/06/25 05:21:20;;;;;;;38.97;32.47;;;15.40;99.90;;;;;;5022884;28;20468;-82
2021/06/25 05:23:47;;;;;;;41.17;30.60;;;15.40;99.90;;;;;;5023757;28;20433;-83
2021/06/25 05:26:14;;;;;;;37.43;29.20;;;15.50;99.90;;;;;;4989393;28;20457;-83
2021/06/25 05:28:42;;;;;;;44.80;31.87;;;15.50;99.90;;;;;;5016685;28;20449;-83
2021/06/25 05:31:08;;;;;;;44.83;32.03;;;15.60;99.90;;;;;;5012386;28;20556;-82
2021/06/25 05:33:35;;;;;;;45.03;30.87;;;15.60;99.90;;;;;;4996433;28;20779;-83
2021/06/25 05:36:03;;;;;;;43.07;32.10;;;15.70;99.90;;;;;;4983170;28;21019;-82
2021/06/25 05:38:30;;;;;;;43.53;30.70;;;15.70;99.90;;;;;;4998675;28;20802;-83
2021/06/25 05:40:56;;;;;;;35.17;28.10;;;15.80;99.90;;;;;;4992709;28;20454;-82
2021/06/25 05:43:24;;;;;;;34.73;27.10;;;15.90;99.90;;;;;;5008773;28;20429;-83
2021/06/25 05:45:50;;;;;;;33.97;25.70;;;15.90;99.90;;;;;;4990300;28;20734;-82
2021/06/25 05:48:17;;;;;;;34.80;26.70;;;15.90;99.90;;;;;;4975511;28;20453;-81
2021/06/25 05:50:44;;;;;;;34.30;25.73;;;16.00;99.90;;;;;;4995527;28;20435;-83
2021/06/25 05:53:11;;;;;;;32.43;24.20;;;16.00;99.90;;;;;;4995209;28;20456;-83
2021/06/25 05:55:42;;;;;;;33.80;25.20;;;16.00;99.90;;;;;;4992884;28;20458;-82
2021/06/25 05:58:09;;;;;;;32.30;23.43;;;16.10;99.90;;;;;;4964197;28;20479;-83
2021/06/25 06:00:37;;;;;;;28.00;21.97;;;16.10;99.90;;;;;;4978993;28;20556;-84
2021/06/25 06:03:04;;;;;;;27.70;23.30;;;16.20;99.90;;;;;;4978883;28;20436;-83
2021/06/25 06:05:34;;;;;;;22.27;18.20;;;16.30;99.90;;;;;;4978152;28;20450;-82
2021/06/25 06:08:05;;;;;;;28.60;22.27;;;16.40;99.90;;;;;;4989599;28;20466;-84
2021/06/25 06:10:33;;;;;;;26.70;20.17;;;16.50;99.90;;;;;;4949656;28;20430;-83
2021/06/25 06:13:01;;;;;;;26.70;19.80;;;16.60;99.90;;;;;;4956238;28;20785;-82
2021/06/25 06:15:29;;;;;;;24.60;18.43;;;16.60;99.90;;;;;;4958273;28;20483;-81
2021/06/25 06:17:58;;;;;;;23.40;19.50;;;16.70;99.90;;;;;;4975647;28;20484;-81
2021/06/25 06:20:26;;;;;;;22.97;19.10;;;16.70;99.90;;;;;;4993310;28;20533;-81
2021/06/25 06:33:54;;;;;;;20.97;18.60;;;17.20;99.90;;;;;;4961543;28;20659;-82
2021/06/25 06:36:33;;;;;;;21.10;18.67;;;17.30;99.90;;;;;;4959839;28;20532;-80
2021/06/25 06:39:04;;;;;;;18.47;15.30;;;17.40;99.90;;;;;;4977368;28;20465;-83
2021/06/25 06:41:32;;;;;;;20.20;16.57;;;17.50;99.90;;;;;;4978127;28;20490;-84
2021/06/25 06:43:59;;;;;;;22.90;15.20;;;17.60;99.90;;;;;;4995929;28;20417;-83
2021/06/25 06:46:30;;;;;;;22.00;16.57;;;17.80;99.90;;;;;;4978362;28;20486;-82
2021/06/25 06:48:57;;;;;;;19.50;15.13;;;17.80;99.90;;;;;;4995855;28;20429;-82
2021/06/25 06:51:24;;;;;;;15.00;13.50;;;17.90;99.90;;;;;;4995705;28;20638;-82
2021/06/25 06:53:52;;;;;;;17.00;13.87;;;18.00;99.90;;;;;;4964119;28;20471;-82
2021/06/25 06:56:21;;;;;;;15.77;14.17;;;18.00;99.90;;;;;;4945441;28;20463;-82
2021/06/25 06:58:51;;;;;;;18.03;14.47;;;18.00;99.90;;;;;;4949573;28;21002;-81
2021/06/25 07:01:19;;;;;;;21.10;15.50;;;18.10;99.90;;;;;;4993194;28;20553;-78
2021/06/25 07:04:05;;;;;;;17.07;15.30;;;18.10;99.90;;;;;;4990679;28;20826;-81
2021/06/25 07:06:32;;;;;;;17.47;14.30;;;18.20;99.90;;;;;;4995515;28;20467;-81
2021/06/25 07:08:59;;;;;;;14.37;12.87;;;18.20;99.90;;;;;;4977271;28;20545;-82
2021/06/25 07:11:26;;;;;;;15.07;13.47;;;18.20;99.90;;;;;;4984703;28;20461;-81
2021/06/25 07:13:53;;;;;;;17.00;13.90;;;18.30;99.90;;;;;;4998311;28;20529;-80
2021/06/25 07:16:20;;;;;;;13.13;11.83;;;18.40;99.90;;;;;;4967412;28;20995;-82
2021/06/25 07:18:47;;;;;;;14.97;13.23;;;18.40;99.90;;;;;;4977852;28;20955;-81
2021/06/25 07:21:15;;;;;;;13.37;11.97;;;18.50;99.90;;;;;;4976285;28;20894;-81
2021/06/25 07:23:42;;;;;;;14.70;11.70;;;18.60;99.90;;;;;;4988847;28;20981;-81
2021/06/25 07:26:09;;;;;;;13.73;11.43;;;18.70;99.90;;;;;;4960105;28;20543;-81
2021/06/25 07:28:36;;;;;;;13.03;10.27;;;18.90;99.90;;;;;;4975413;28;20464;-80
2021/06/25 07:31:03;;;;;;;13.23;11.63;;;19.00;99.90;;;;;;4977097;28;20549;-79
2021/06/25 07:33:31;;;;;;;13.47;12.17;;;19.00;99.90;;;;;;4994555;28;20444;-81
2021/06/25 07:35:57;;;;;;;14.90;12.40;;;19.10;99.90;;;;;;4994065;28;20458;-80
2021/06/25 07:38:24;;;;;;;11.30;10.20;;;19.20;99.90;;;;;;4983621;28;20460;-79
2021/06/25 07:40:51;;;;;;;13.83;10.73;;;19.40;99.90;;;;;;4962108;28;20543;-81
2021/06/25 07:43:19;;;;;;;13.80;9.77;;;19.50;99.90;;;;;;4974651;28;20423;-81
2021/06/25 07:45:46;;;;;;;12.83;10.60;;;19.50;99.90;;;;;;4972856;28;20479;-81
2021/06/25 07:48:15;;;;;;;12.53;11.20;;;19.60;99.90;;;;;;4981911;28;20468;-83
2021/06/25 07:50:42;;;;;;;11.60;9.67;;;19.70;98.40;;;;;;4994920;28;20801;-81
2021/06/25 07:53:10;;;;;;;9.80;8.67;;;19.80;96.10;;;;;;4968080;28;20435;-81
2021/06/25 07:55:42;;;;;;;9.00;8.03;;;19.70;95.30;;;;;;4977202;28;20415;-82
2021/06/25 07:58:11;;;;;;;8.67;7.77;;;19.80;94.80;;;;;;4958749;28;20452;-80
2021/06/25 08:00:39;;;;;;;11.20;8.80;;;19.90;91.10;;;;;;4952666;28;20584;-80
2021/06/25 08:03:05;;;;;;;8.77;7.90;;;20.00;90.20;;;;;;4976935;28;20449;-81
2021/06/25 08:05:33;;;;;;;12.10;8.30;;;19.90;90.00;;;;;;4976597;28;20452;-81
2021/06/25 08:08:00;;;;;;;15.77;9.60;;;20.00;89.80;;;;;;4961097;28;20758;-80
2021/06/25 08:10:27;;;;;;;9.47;8.47;;;20.10;90.20;;;;;;4994508;28;20521;-81
2021/06/25 08:12:54;;;;;;;11.40;9.37;;;20.20;90.10;;;;;;5003378;28;20435;-81
2021/06/25 08:15:21;;;;;;;11.77;10.60;;;20.20;89.00;;;;;;5000677;28;20484;-81
2021/06/25 08:17:48;;;;;;;10.73;8.27;;;20.20;89.10;;;;;;4987056;28;20479;-80
2021/06/25 08:20:15;;;;;;;10.10;9.20;;;20.20;86.70;;;;;;4992872;28;20462;-82
2021/06/25 08:22:42;;;;;;;10.40;9.30;;;20.20;87.70;;;;;;4987627;28;21080;-82
2021/06/25 08:25:10;;;;;;;10.60;9.50;;;20.30;82.40;;;;;;4973333;28;20442;-81
2021/06/25 08:27:37;;;;;;;9.43;8.03;;;20.50;85.10;;;;;;4972751;28;20473;-80
2021/06/25 08:30:05;;;;;;;11.40;10.10;;;20.50;88.40;;;;;;4956114;28;20452;-80
2021/06/25 08:32:33;;;;;;;14.07;12.03;;;20.50;86.60;;;;;;4971597;28;20562;-82
2021/06/25 08:35:00;;;;;;;12.20;11.00;;;20.50;83.70;;;;;;4973339;28;20427;-81
2021/06/25 08:37:28;;;;;;;11.70;9.87;;;20.50;84.20;;;;;;4971561;28;20510;-81
2021/06/25 08:39:55;;;;;;;12.50;10.43;;;20.40;83.50;;;;;;4960264;28;20470;-81
2021/06/25 08:42:24;;;;;;;11.33;10.23;;;20.50;79.40;;;;;;4959424;28;20458;-81
2021/06/25 08:44:52;;;;;;;12.30;9.87;;;20.50;78.30;;;;;;4976369;28;20958;-81
2021/06/25 08:47:26;;;;;;;11.47;10.30;;;20.50;81.70;;;;;;4991535;28;20490;-81
2021/06/25 08:50:02;;;;;;;11.93;10.70;;;20.60;79.20;;;;;;4976626;28;20489;-81
2021/06/25 08:52:31;;;;;;;13.83;12.33;;;20.70;79.70;;;;;;4953763;28;20808;-81
2021/06/25 08:54:58;;;;;;;14.10;12.33;;;20.90;79.70;;;;;;4964981;28;20446;-80
2021/06/25 08:57:27;;;;;;;14.73;13.10;;;21.10;78.40;;;;;;4958735;28;20492;-81
2021/06/25 08:59:54;;;;;;;14.40;11.43;;;21.00;79.60;;;;;;4992134;28;20556;-81
2021/06/25 09:02:23;;;;;;;12.63;11.37;;;21.10;77.80;;;;;;4992422;28;20539;-81
2021/06/25 09:04:51;;;;;;;16.40;12.60;;;21.10;79.30;;;;;;4995741;28;20512;-81
2021/06/25 09:07:19;;;;;;;16.13;12.03;;;21.20;77.00;;;;;;4968973;28;20566;-80
2021/06/25 09:09:49;;;;;;;17.13;11.53;;;21.20;79.40;;;;;;4975813;28;20454;-81
2021/06/25 09:12:25;;;;;;;13.60;12.20;;;21.30;76.00;;;;;;4998770;28;21059;-82
2021/06/25 09:15:05;;;;;;;13.03;11.70;;;21.40;75.20;;;;;;4996288;28;20540;-81
2021/06/25 09:17:34;;;;;;;13.07;11.83;;;21.40;73.40;;;;;;4953651;28;20536;-82
2021/06/25 09:20:05;;;;;;;14.67;13.10;;;21.50;76.00;;;;;;4960684;28;20530;-82
2021/06/25 09:22:50;;;;;;;12.03;10.90;;;21.70;74.00;;;;;;4968355;28;20553;-80
2021/06/25 09:25:18;;;;;;;14.30;12.90;;;21.70;73.40;;;;;;4957410;28;20494;-80
2021/06/25 09:27:56;;;;;;;12.73;11.50;;;21.80;71.80;;;;;;4961270;28;20476;-80
2021/06/25 09:30:26;;;;;;;13.37;12.17;;;21.70;71.80;;;;;;4996031;28;20497;-80
2021/06/25 09:32:55;;;;;;;14.17;12.67;;;21.80;71.50;;;;;;4971062;28;20592;-80
2021/06/25 09:35:24;;;;;;;15.47;13.87;;;21.80;71.90;;;;;;4995703;28;20450;-80
2021/06/25 09:37:53;;;;;;;15.77;13.17;;;21.90;72.00;;;;;;4969873;28;20482;-80
2021/06/25 09:40:21;;;;;;;13.63;12.23;;;21.80;70.00;;;;;;4960347;28;20478;-81
2021/06/25 09:43:11;;;;;;;14.20;11.23;;;21.60;68.50;;;;;;4976197;28;20500;-81
2021/06/25 09:45:49;;;;;;;15.47;12.87;;;21.50;68.90;;;;;;4976885;28;21019;-80
2021/06/25 09:48:16;;;;;;;14.07;12.77;;;21.40;69.40;;;;;;4955194;28;20552;-80
2021/06/25 09:50:46;;;;;;;14.47;13.07;;;21.40;72.10;;;;;;4975985;28;20438;-78
2021/06/25 09:53:13;;;;;;;13.90;11.33;;;21.40;70.30;;;;;;4974989;28;20892;-80
2021/06/25 09:55:56;;;;;;;15.50;13.77;;;21.50;69.90;;;;;;4981678;28;20449;-80
2021/06/25 09:58:40;;;;;;;16.70;15.00;;;21.50;73.00;;;;;;4979015;28;20469;-79
2021/06/25 10:01:28;;;;;;;17.10;14.70;;;21.60;72.40;;;;;;4960340;28;20551;-80
2021/06/25 10:03:58;;;;;;;16.03;14.23;;;21.80;69.80;;;;;;4956397;28;20998;-81
2021/06/25 10:06:28;;;;;;;16.43;14.63;;;21.90;68.00;;;;;;4955592;28;20497;-80
2021/06/25 10:08:55;;;;;;;15.10;12.90;;;22.00;68.80;;;;;;4992301;28;20514;-80
2021/06/25 10:11:28;;;;;;;14.50;13.03;;;22.00;69.40;;;;;;4974574;28;20476;-81
2021/06/25 10:14:00;;;;;;;16.80;11.90;;;22.00;67.60;;;;;;4960396;28;20523;-80
2021/06/25 10:16:27;;;;;;;13.17;12.07;;;21.90;67.00;;;;;;4978835;28;20462;-80
2021/06/25 10:18:58;;;;;;;13.43;12.17;;;21.80;68.30;;;;;;4979398;28;20440;-80
2021/06/25 10:21:31;;;;;;;14.57;13.10;;;21.60;69.80;;;;;;4994833;28;21117;-80
2021/06/25 10:24:02;;;;;;;13.87;11.57;;;21.40;70.80;;;;;;4996107;28;20964;-80
2021/06/25 10:26:30;;;;;;;13.63;12.33;;;21.40;67.80;;;;;;4978245;28;20465;-80
2021/06/25 10:28:58;;;;;;;12.13;10.97;;;21.50;69.20;;;;;;4980325;28;20456;-81
2021/06/25 10:31:26;;;;;;;14.17;12.40;;;21.60;68.10;;;;;;4987736;28;20808;-80
2021/06/25 10:33:55;;;;;;;14.37;12.80;;;21.60;69.10;;;;;;4992477;28;20455;-80
2021/06/25 10:36:30;;;;;;;14.33;12.93;;;21.70;70.00;;;;;;4987768;28;20487;-81
2021/06/25 10:39:24;;;;;;;12.50;10.97;;;21.90;70.30;;;;;;5012303;28;20549;-81
2021/06/25 10:41:54;;;;;;;12.53;11.33;;;22.20;67.80;;;;;;4963543;28;20535;-81
2021/06/25 10:44:43;;;;;;;13.03;11.73;;;22.40;61.00;;;;;;4976329;28;20460;-80
2021/06/25 10:47:23;;;;;;;12.03;10.80;;;22.40;62.30;;;;;;4981826;28;20823;-80
2021/06/25 10:50:04;;;;;;;13.53;12.27;;;22.40;63.00;;;;;;4977641;28;20452;-80
2021/06/25 10:52:33;;;;;;;13.57;12.03;;;22.50;65.10;;;;;;4972140;28;20490;-80
2021/06/25 10:55:04;;;;;;;16.53;12.17;;;22.60;63.60;;;;;;4970827;28;20437;-81
2021/06/25 10:57:36;;;;;;;15.00;13.50;;;22.70;60.70;;;;;;4976879;28;20485;-80
2021/06/25 11:00:05;;;;;;;11.90;10.70;;;23.00;60.50;;;;;;4970712;28;20467;-81
2021/06/25 11:02:46;;;;;;;12.93;11.40;;;23.10;62.10;;;;;;4991688;28;21134;-80
2021/06/25 11:05:25;;;;;;;13.00;11.70;;;23.20;64.20;;;;;;4944466;28;20440;-79
2021/06/25 11:07:57;;;;;;;14.90;10.43;;;23.30;60.00;;;;;;4949855;28;20460;-80
2021/06/25 11:10:25;;;;;;;10.80;9.80;;;23.50;59.20;;;;;;4966349;28;20495;-81
2021/06/25 11:13:11;;;;;;;12.47;11.20;;;23.50;60.20;;;;;;4980657;28;20468;-81
2021/06/25 11:15:41;;;;;;;11.97;10.73;;;23.50;56.90;;;;;;4984764;28;20960;-79
2021/06/25 11:18:30;;;;;;;12.63;10.67;;;23.60;56.70;;;;;;4982937;28;20503;-80
2021/06/25 11:20:58;;;;;;;10.80;9.73;;;23.60;56.70;;;;;;4998768;28;20468;-77
2021/06/25 11:23:37;;;;;;;12.10;10.90;;;23.60;53.70;;;;;;5004136;28;20539;-79
2021/06/25 11:26:17;;;;;;;14.53;12.47;;;23.30;57.90;;;;;;4980528;28;20466;-80
2021/06/25 11:28:46;;;;;;;12.23;11.10;;;23.20;57.50;;;;;;4963615;28;20454;-79
2021/06/25 11:31:13;;;;;;;12.40;11.10;;;23.10;59.00;;;;;;4964036;28;20470;-79
2021/06/25 11:33:59;;;;;;;11.43;10.23;;;23.20;59.50;;;;;;4980204;28;20460;-79
2021/06/25 11:36:39;;;;;;;15.13;11.90;;;23.20;58.40;;;;;;4972937;28;20469;-80
2021/06/25 11:39:12;;;;;;;11.93;10.53;;;23.20;60.30;;;;;;4984293;28;20451;-79
2021/06/25 11:41:52;;;;;;;11.73;10.63;;;23.00;58.90;;;;;;4982169;28;20485;-80
2021/06/25 11:44:36;;;;;;;11.03;9.67;;;23.10;57.00;;;;;;4998755;28;20441;-80
2021/06/25 11:47:25;;;;;;;11.03;9.93;;;23.20;58.50;;;;;;4994241;28;20466;-80
2021/06/25 11:52:23;;;;;;;13.67;10.20;;;23.40;57.90;;;;;;4987922;28;20498;-80
2021/06/25 11:54:58;;;;;;;11.37;10.00;;;23.50;53.40;;;;;;4975146;28;20424;-80
2021/06/25 11:57:26;;;;;;;12.30;11.00;;;23.60;58.90;;;;;;4976060;28;20970;-80
2021/06/25 12:00:14;;;;;;;11.70;10.60;;;23.40;57.50;;;;;;4962397;28;20442;-80
2021/06/25 12:02:47;;;;;;;12.40;11.20;;;23.40;58.00;;;;;;4977222;28;20524;-78
2021/06/25 12:05:19;;;;;;;12.67;11.37;;;23.40;56.60;;;;;;4983562;28;20435;-80
2021/06/25 12:08:15;;;;;;;11.70;10.27;;;23.50;55.10;;;;;;4985496;28;20512;-81
2021/06/25 12:11:00;;;;;;;12.37;11.07;;;23.50;57.70;;;;;;4942008;28;20971;-80
2021/06/25 12:13:30;;;;;;;12.10;10.90;;;23.50;56.40;;;;;;4989869;28;20534;-79
2021/06/25 12:15:57;;;;;;;12.73;11.37;;;23.30;57.20;;;;;;4978925;28;20454;-81
2021/06/25 12:18:26;;;;;;;12.00;10.90;;;23.10;58.00;;;;;;4977282;28;20507;-80
2021/06/25 12:21:07;;;;;;;13.10;11.90;;;22.90;58.70;;;;;;4977621;28;20515;-80
2021/06/25 12:23:35;;;;;;;10.93;9.93;;;22.90;60.20;;;;;;4964362;28;20525;-80
2021/06/25 12:26:21;;;;;;;11.87;10.30;;;23.00;62.10;;;;;;4961497;28;21309;-80
2021/06/25 12:28:51;;;;;;;13.63;10.70;;;23.30;61.50;;;;;;4993578;28;20449;-80
2021/06/25 12:31:22;;;;;;;12.00;10.97;;;23.50;60.40;;;;;;4982393;28;20469;-80
2021/06/25 12:33:52;;;;;;;12.87;11.47;;;23.60;59.70;;;;;;4959248;28;20946;-80
2021/06/25 12:36:19;;;;;;;13.03;11.70;;;23.60;58.10;;;;;;4977369;28;20531;-80
2021/06/25 12:38:50;;;;;;;12.70;11.37;;;23.50;60.30;;;;;;4945051;28;20470;-79
2021/06/25 12:41:18;;;;;;;11.60;10.57;;;23.50;58.40;;;;;;4976354;28;20481;-79
2021/06/25 12:43:47;;;;;;;12.40;9.50;;;23.60;58.10;;;;;;4960306;28;20452;-80
2021/06/25 12:46:17;;;;;;;12.60;11.07;;;23.90;57.70;;;;;;4974479;28;20477;-80
2021/06/25 12:48:50;;;;;;;10.73;9.63;;;24.00;56.30;;;;;;4978097;28;20477;-78
2021/06/25 12:51:30;;;;;;;11.33;10.23;;;24.10;56.10;;;;;;4975629;28;20471;-79
2021/06/25 12:53:58;;;;;;;10.40;9.37;;;24.20;55.90;;;;;;4992418;28;20445;-80